sensor_id;sensor_type;location;lat;lon;timestamp;P1;durP1;ratioP1;P2;durP2;ratioP2
58669;SDS011;44439;47.924;10.198;2023-05-20T00:01:28;11.70;;;10.50;;
58669;SDS011;44439;47.924;10.198;2023-05-20T00:04:13;14.18;;;11.38;;
58669;SDS011;44439;47.924;10.198;2023-05-20T00:06:59;12.00;;;10.80;;
58669;SDS011;44439;47.924;10.198;2023-05-20T00:09:44;13.07;;;10.80;;
58669;SDS011;44439;47.924;10.198;2023-05-20T00:12:30;12.27;;;11.07;;
58669;SDS011;44439;47.924;10.198;2023-05-20T00:15:15;12.65;;;11.35;;
58669;SDS011;44439;47.924;10.198;2023-05-20T00:18:01;13.43;;;11.13;;
58669;SDS011;44439;47.924;10.198;2023-05-20T00:20:48;11.48;;;10.20;;
58669;SDS011;44439;47.924;10.198;2023-05-20T00:23:33;13.02;;;10.32;;
58669;SDS011;44439;47.924;10.198;2023-05-20T00:26:19;13.30;;;10.02;;
58669;SDS011;44439;47.924;10.198;2023-05-20T00:29:05;12.05;;;10.55;;
58669;SDS011;44439;47.924;10.198;2023-05-20T00:31:51;13.63;;;11.65;;
58669;SDS011;44439;47.924;10.198;2023-05-20T00:34:36;13.05;;;10.40;;
58669;SDS011;44439;47.924;10.198;2023-05-20T00:37:22;12.25;;;10.13;;
58669;SDS011;44439;47.924;10.198;2023-05-20T00:40:07;12.13;;;10.10;;
58669;SDS011;44439;47.924;10.198;2023-05-20T00:42:53;11.98;;;10.35;;
58669;SDS011;44439;47.924;10.198;2023-05-20T00:45:39;12.75;;;10.15;;
58669;SDS011;44439;47.924;10.198;2023-05-20T00:48:24;11.27;;;9.63;;
58669;SDS011;44439;47.924;10.198;2023-05-20T00:51:10;12.48;;;10.73;;
58669;SDS011;44439;47.924;10.198;2023-05-20T00:53:57;12.63;;;10.52;;
58669;SDS011;44439;47.924;10.198;2023-05-20T00:56:42;11.75;;;10.55;;
58669;SDS011;44439;47.924;10.198;2023-05-20T00:59:28;15.38;;;11.77;;
58669;SDS011;44439;47.924;10.198;2023-05-20T01:02:14;13.80;;;11.43;;
58669;SDS011;44439;47.924;10.198;2023-05-20T01:05:00;12.80;;;11.50;;
58669;SDS011;44439;47.924;10.198;2023-05-20T01:07:45;11.32;;;10.15;;
58669;SDS011;44439;47.924;10.198;2023-05-20T01:10:31;14.73;;;11.00;;
58669;SDS011;44439;47.924;10.198;2023-05-20T01:13:19;13.95;;;11.60;;
58669;SDS011;44439;47.924;10.198;2023-05-20T01:16:05;11.88;;;10.63;;
58669;SDS011;44439;47.924;10.198;2023-05-20T01:18:52;14.25;;;10.60;;
58669;SDS011;44439;47.924;10.198;2023-05-20T01:21:39;14.38;;;11.43;;
58669;SDS011;44439;47.924;10.198;2023-05-20T01:24:25;12.18;;;10.45;;
58669;SDS011;44439;47.924;10.198;2023-05-20T01:27:11;12.77;;;10.95;;
58669;SDS011;44439;47.924;10.198;2023-05-20T01:29:57;11.30;;;10.13;;
58669;SDS011;44439;47.924;10.198;2023-05-20T01:32:46;12.05;;;10.85;;
58669;SDS011;44439;47.924;10.198;2023-05-20T01:35:32;13.02;;;11.13;;
58669;SDS011;44439;47.924;10.198;2023-05-20T01:38:19;13.27;;;11.70;;
58669;SDS011;44439;47.924;10.198;2023-05-20T01:41:05;14.43;;;11.68;;
58669;SDS011;44439;47.924;10.198;2023-05-20T01:43:52;13.30;;;11.60;;
58669;SDS011;44439;47.924;10.198;2023-05-20T01:46:37;12.93;;;11.52;;
58669;SDS011;44439;47.924;10.198;2023-05-20T01:49:23;12.90;;;11.60;;
58669;SDS011;44439;47.924;10.198;2023-05-20T01:52:08;13.68;;;12.13;;
58669;SDS011;44439;47.924;10.198;2023-05-20T01:54:54;13.13;;;11.75;;
58669;SDS011;44439;47.924;10.198;2023-05-20T01:57:40;12.77;;;11.25;;
58669;SDS011;44439;47.924;10.198;2023-05-20T02:00:25;12.70;;;11.35;;
58669;SDS011;44439;47.924;10.198;2023-05-20T02:03:11;11.93;;;10.65;;
58669;SDS011;44439;47.924;10.198;2023-05-20T02:05:56;13.05;;;11.43;;
58669;SDS011;44439;47.924;10.198;2023-05-20T02:08:42;14.30;;;11.63;;
58669;SDS011;44439;47.924;10.198;2023-05-20T02:11:27;16.23;;;11.15;;
58669;SDS011;44439;47.924;10.198;2023-05-20T02:14:13;12.68;;;11.20;;
58669;SDS011;44439;47.924;10.198;2023-05-20T02:16:58;13.05;;;11.05;;
58669;SDS011;44439;47.924;10.198;2023-05-20T02:19:44;12.68;;;10.68;;
58669;SDS011;44439;47.924;10.198;2023-05-20T02:22:30;12.82;;;10.88;;
58669;SDS011;44439;47.924;10.198;2023-05-20T02:25:15;13.85;;;10.98;;
58669;SDS011;44439;47.924;10.198;2023-05-20T02:28:01;12.60;;;10.90;;
58669;SDS011;44439;47.924;10.198;2023-05-20T02:30:49;13.57;;;10.85;;
58669;SDS011;44439;47.924;10.198;2023-05-20T02:33:35;14.20;;;11.80;;
58669;SDS011;44439;47.924;10.198;2023-05-20T02:36:21;12.55;;;11.20;;
58669;SDS011;44439;47.924;10.198;2023-05-20T02:39:07;13.20;;;11.00;;
58669;SDS011;44439;47.924;10.198;2023-05-20T02:41:52;12.30;;;10.73;;
58669;SDS011;44439;47.924;10.198;2023-05-20T02:44:38;13.73;;;11.50;;
58669;SDS011;44439;47.924;10.198;2023-05-20T02:47:24;13.52;;;11.27;;
58669;SDS011;44439;47.924;10.198;2023-05-20T02:50:09;13.15;;;10.77;;
58669;SDS011;44439;47.924;10.198;2023-05-20T02:52:55;12.02;;;10.73;;
58669;SDS011;44439;47.924;10.198;2023-05-20T02:55:41;13.23;;;10.50;;
58669;SDS011;44439;47.924;10.198;2023-05-20T02:58:29;12.60;;;10.32;;
58669;SDS011;44439;47.924;10.198;2023-05-20T03:01:14;12.35;;;10.55;;
58669;SDS011;44439;47.924;10.198;2023-05-20T03:04:01;13.63;;;9.77;;
58669;SDS011;44439;47.924;10.198;2023-05-20T03:06:46;11.68;;;10.05;;
58669;SDS011;44439;47.924;10.198;2023-05-20T03:09:32;11.13;;;10.02;;
58669;SDS011;44439;47.924;10.198;2023-05-20T03:12:17;13.68;;;10.05;;
58669;SDS011;44439;47.924;10.198;2023-05-20T03:15:03;11.98;;;9.98;;
58669;SDS011;44439;47.924;10.198;2023-05-20T03:17:49;12.88;;;9.65;;
58669;SDS011;44439;47.924;10.198;2023-05-20T03:20:34;12.88;;;10.23;;
58669;SDS011;44439;47.924;10.198;2023-05-20T03:23:23;11.48;;;9.65;;
58669;SDS011;44439;47.924;10.198;2023-05-20T03:26:08;11.90;;;10.40;;
58669;SDS011;44439;47.924;10.198;2023-05-20T03:28:54;12.77;;;10.23;;
58669;SDS011;44439;47.924;10.198;2023-05-20T03:31:39;11.65;;;10.45;;
58669;SDS011;44439;47.924;10.198;2023-05-20T03:34:25;12.95;;;9.80;;
58669;SDS011;44439;47.924;10.198;2023-05-20T03:37:12;10.80;;;9.70;;
58669;SDS011;44439;47.924;10.198;2023-05-20T03:39:58;14.05;;;9.30;;
58669;SDS011;44439;47.924;10.198;2023-05-20T03:42:43;11.57;;;9.45;;
58669;SDS011;44439;47.924;10.198;2023-05-20T03:45:29;14.10;;;10.77;;
58669;SDS011;44439;47.924;10.198;2023-05-20T03:48:14;12.52;;;10.00;;
58669;SDS011;44439;47.924;10.198;2023-05-20T03:51:00;13.02;;;9.88;;
58669;SDS011;44439;47.924;10.198;2023-05-20T03:53:46;12.10;;;9.73;;
58669;SDS011;44439;47.924;10.198;2023-05-20T03:56:31;13.15;;;10.52;;
58669;SDS011;44439;47.924;10.198;2023-05-20T03:59:17;11.95;;;9.88;;
58669;SDS011;44439;47.924;10.198;2023-05-20T04:02:03;12.27;;;10.15;;
58669;SDS011;44439;47.924;10.198;2023-05-20T04:04:49;12.13;;;10.82;;
58669;SDS011;44439;47.924;10.198;2023-05-20T04:07:37;14.45;;;10.40;;
58669;SDS011;44439;47.924;10.198;2023-05-20T04:10:22;12.75;;;10.73;;
58669;SDS011;44439;47.924;10.198;2023-05-20T04:13:08;11.43;;;10.20;;
58669;SDS011;44439;47.924;10.198;2023-05-20T04:15:54;12.30;;;10.77;;
58669;SDS011;44439;47.924;10.198;2023-05-20T04:18:39;11.50;;;10.05;;
58669;SDS011;44439;47.924;10.198;2023-05-20T04:21:25;12.70;;;10.10;;
58669;SDS011;44439;47.924;10.198;2023-05-20T04:24:11;11.88;;;9.43;;
58669;SDS011;44439;47.924;10.198;2023-05-20T04:26:57;11.68;;;9.98;;
58669;SDS011;44439;47.924;10.198;2023-05-20T04:29:42;11.80;;;9.75;;
58669;SDS011;44439;47.924;10.198;2023-05-20T04:32:30;11.02;;;9.77;;
58669;SDS011;44439;47.924;10.198;2023-05-20T04:35:16;12.52;;;9.32;;
58669;SDS011;44439;47.924;10.198;2023-05-20T04:38:02;12.45;;;9.43;;
58669;SDS011;44439;47.924;10.198;2023-05-20T04:40:47;10.60;;;8.55;;
58669;SDS011;44439;47.924;10.198;2023-05-20T04:43:33;9.02;;;8.05;;
58669;SDS011;44439;47.924;10.198;2023-05-20T04:46:19;11.20;;;8.05;;
58669;SDS011;44439;47.924;10.198;2023-05-20T04:49:05;10.07;;;8.98;;
58669;SDS011;44439;47.924;10.198;2023-05-20T04:51:51;10.35;;;8.18;;
58669;SDS011;44439;47.924;10.198;2023-05-20T04:54:39;9.10;;;8.00;;
58669;SDS011;44439;47.924;10.198;2023-05-20T04:57:24;9.27;;;8.15;;
58669;SDS011;44439;47.924;10.198;2023-05-20T05:00:10;9.50;;;7.85;;
58669;SDS011;44439;47.924;10.198;2023-05-20T05:02:56;10.48;;;7.57;;
58669;SDS011;44439;47.924;10.198;2023-05-20T05:05:42;9.50;;;7.15;;
58669;SDS011;44439;47.924;10.198;2023-05-20T05:08:27;7.70;;;6.82;;
58669;SDS011;44439;47.924;10.198;2023-05-20T05:11:13;8.55;;;6.75;;
58669;SDS011;44439;47.924;10.198;2023-05-20T05:13:58;7.72;;;6.93;;
58669;SDS011;44439;47.924;10.198;2023-05-20T05:16:44;7.55;;;6.70;;
58669;SDS011;44439;47.924;10.198;2023-05-20T05:19:29;17.40;;;13.25;;
58669;SDS011;44439;47.924;10.198;2023-05-20T05:22:15;7.45;;;6.63;;
58669;SDS011;44439;47.924;10.198;2023-05-20T05:25:01;12.73;;;8.93;;
58669;SDS011;44439;47.924;10.198;2023-05-20T05:27:47;8.23;;;6.90;;
58669;SDS011;44439;47.924;10.198;2023-05-20T05:30:35;9.10;;;6.90;;
58669;SDS011;44439;47.924;10.198;2023-05-20T05:33:21;8.38;;;6.68;;
58669;SDS011;44439;47.924;10.198;2023-05-20T05:36:07;11.60;;;6.72;;
58669;SDS011;44439;47.924;10.198;2023-05-20T05:39:01;8.98;;;7.72;;
58669;SDS011;44439;47.924;10.198;2023-05-20T05:41:47;11.38;;;9.05;;
58669;SDS011;44439;47.924;10.198;2023-05-20T05:44:34;10.88;;;8.77;;
58669;SDS011;44439;47.924;10.198;2023-05-20T05:47:20;11.38;;;8.52;;
58669;SDS011;44439;47.924;10.198;2023-05-20T05:50:08;8.57;;;7.68;;
58669;SDS011;44439;47.924;10.198;2023-05-20T05:52:54;11.32;;;8.25;;
58669;SDS011;44439;47.924;10.198;2023-05-20T05:55:40;10.30;;;7.45;;
58669;SDS011;44439;47.924;10.198;2023-05-20T05:58:27;9.50;;;8.35;;
58669;SDS011;44439;47.924;10.198;2023-05-20T06:01:13;11.82;;;8.80;;
58669;SDS011;44439;47.924;10.198;2023-05-20T06:03:59;9.32;;;8.38;;
58669;SDS011;44439;47.924;10.198;2023-05-20T06:06:44;9.30;;;8.30;;
58669;SDS011;44439;47.924;10.198;2023-05-20T06:09:31;14.30;;;10.85;;
58669;SDS011;44439;47.924;10.198;2023-05-20T06:12:19;10.38;;;8.50;;
58669;SDS011;44439;47.924;10.198;2023-05-20T06:15:04;10.02;;;8.88;;
58669;SDS011;44439;47.924;10.198;2023-05-20T06:17:51;11.13;;;9.55;;
58669;SDS011;44439;47.924;10.198;2023-05-20T06:20:37;14.02;;;10.82;;
58669;SDS011;44439;47.924;10.198;2023-05-20T06:23:22;19.35;;;14.93;;
58669;SDS011;44439;47.924;10.198;2023-05-20T06:26:08;20.27;;;16.20;;
58669;SDS011;44439;47.924;10.198;2023-05-20T06:28:53;21.55;;;15.93;;
58669;SDS011;44439;47.924;10.198;2023-05-20T06:31:39;19.23;;;16.33;;
58669;SDS011;44439;47.924;10.198;2023-05-20T06:34:24;20.00;;;15.88;;
58669;SDS011;44439;47.924;10.198;2023-05-20T06:37:10;19.20;;;15.88;;
58669;SDS011;44439;47.924;10.198;2023-05-20T06:39:56;18.55;;;14.65;;
58669;SDS011;44439;47.924;10.198;2023-05-20T06:42:41;16.73;;;13.20;;
58669;SDS011;44439;47.924;10.198;2023-05-20T06:45:27;15.02;;;13.43;;
58669;SDS011;44439;47.924;10.198;2023-05-20T06:48:12;14.70;;;13.10;;
58669;SDS011;44439;47.924;10.198;2023-05-20T06:50:58;18.65;;;14.98;;
58669;SDS011;44439;47.924;10.198;2023-05-20T06:53:43;18.27;;;14.25;;
58669;SDS011;44439;47.924;10.198;2023-05-20T06:56:29;19.40;;;13.55;;
58669;SDS011;44439;47.924;10.198;2023-05-20T06:59:14;17.63;;;14.50;;
58669;SDS011;44439;47.924;10.198;2023-05-20T07:02:00;16.33;;;14.25;;
58669;SDS011;44439;47.924;10.198;2023-05-20T07:04:45;16.23;;;13.93;;
58669;SDS011;44439;47.924;10.198;2023-05-20T07:07:31;16.35;;;14.18;;
58669;SDS011;44439;47.924;10.198;2023-05-20T07:10:17;22.73;;;15.82;;
58669;SDS011;44439;47.924;10.198;2023-05-20T07:13:02;21.08;;;16.58;;
58669;SDS011;44439;47.924;10.198;2023-05-20T07:15:48;16.52;;;13.90;;
58669;SDS011;44439;47.924;10.198;2023-05-20T07:18:33;17.95;;;15.20;;
58669;SDS011;44439;47.924;10.198;2023-05-20T07:21:19;18.55;;;14.70;;
58669;SDS011;44439;47.924;10.198;2023-05-20T07:24:04;19.15;;;16.00;;
58669;SDS011;44439;47.924;10.198;2023-05-20T07:26:50;15.40;;;13.80;;
58669;SDS011;44439;47.924;10.198;2023-05-20T07:29:36;16.70;;;13.52;;
58669;SDS011;44439;47.924;10.198;2023-05-20T07:32:21;17.75;;;15.40;;
58669;SDS011;44439;47.924;10.198;2023-05-20T07:35:07;15.25;;;13.35;;
58669;SDS011;44439;47.924;10.198;2023-05-20T07:37:53;15.65;;;13.88;;
58669;SDS011;44439;47.924;10.198;2023-05-20T07:40:39;16.17;;;13.40;;
58669;SDS011;44439;47.924;10.198;2023-05-20T07:43:25;14.95;;;13.32;;
58669;SDS011;44439;47.924;10.198;2023-05-20T07:46:11;16.38;;;13.25;;
58669;SDS011;44439;47.924;10.198;2023-05-20T07:48:56;17.30;;;13.38;;
58669;SDS011;44439;47.924;10.198;2023-05-20T07:51:42;16.73;;;13.63;;
58669;SDS011;44439;47.924;10.198;2023-05-20T07:54:27;16.30;;;12.90;;
58669;SDS011;44439;47.924;10.198;2023-05-20T07:57:13;16.33;;;12.95;;
58669;SDS011;44439;47.924;10.198;2023-05-20T07:59:58;17.08;;;13.45;;
58669;SDS011;44439;47.924;10.198;2023-05-20T08:02:44;16.73;;;13.00;;
58669;SDS011;44439;47.924;10.198;2023-05-20T08:05:29;17.35;;;13.70;;
58669;SDS011;44439;47.924;10.198;2023-05-20T08:08:15;14.70;;;12.77;;
58669;SDS011;44439;47.924;10.198;2023-05-20T08:11:01;15.63;;;13.05;;
58669;SDS011;44439;47.924;10.198;2023-05-20T08:13:48;13.70;;;12.30;;
58669;SDS011;44439;47.924;10.198;2023-05-20T08:16:34;15.80;;;12.68;;
58669;SDS011;44439;47.924;10.198;2023-05-20T08:19:20;14.55;;;12.45;;
58669;SDS011;44439;47.924;10.198;2023-05-20T08:22:05;14.95;;;12.45;;
58669;SDS011;44439;47.924;10.198;2023-05-20T08:24:52;14.65;;;11.55;;
58669;SDS011;44439;47.924;10.198;2023-05-20T08:27:37;13.65;;;11.88;;
58669;SDS011;44439;47.924;10.198;2023-05-20T08:30:23;17.33;;;12.55;;
58669;SDS011;44439;47.924;10.198;2023-05-20T08:33:08;12.40;;;10.93;;
58669;SDS011;44439;47.924;10.198;2023-05-20T08:35:54;14.48;;;10.95;;
58669;SDS011;44439;47.924;10.198;2023-05-20T08:38:39;13.77;;;10.45;;
58669;SDS011;44439;47.924;10.198;2023-05-20T08:41:25;11.15;;;9.95;;
58669;SDS011;44439;47.924;10.198;2023-05-20T08:44:11;11.00;;;9.65;;
58669;SDS011;44439;47.924;10.198;2023-05-20T08:46:57;12.48;;;9.68;;
58669;SDS011;44439;47.924;10.198;2023-05-20T08:49:42;10.60;;;9.50;;
58669;SDS011;44439;47.924;10.198;2023-05-20T08:52:28;10.45;;;9.13;;
58669;SDS011;44439;47.924;10.198;2023-05-20T08:58:31;10.13;;;8.80;;
58669;SDS011;44439;47.924;10.198;2023-05-20T09:01:23;12.20;;;9.65;;
58669;SDS011;44439;47.924;10.198;2023-05-20T09:04:09;12.65;;;8.90;;
58669;SDS011;44439;47.924;10.198;2023-05-20T09:06:55;10.60;;;9.50;;
58669;SDS011;44439;47.924;10.198;2023-05-20T09:09:41;12.88;;;9.80;;
58669;SDS011;44439;47.924;10.198;2023-05-20T09:12:26;10.43;;;8.98;;
58669;SDS011;44439;47.924;10.198;2023-05-20T09:15:12;14.05;;;8.98;;
58669;SDS011;44439;47.924;10.198;2023-05-20T09:18:04;9.93;;;8.93;;
58669;SDS011;44439;47.924;10.198;2023-05-20T09:20:50;14.23;;;8.93;;
58669;SDS011;44439;47.924;10.198;2023-05-20T09:23:37;10.73;;;9.00;;
58669;SDS011;44439;47.924;10.198;2023-05-20T09:26:22;10.88;;;9.65;;
58669;SDS011;44439;47.924;10.198;2023-05-20T09:29:09;11.80;;;9.70;;
58669;SDS011;44439;47.924;10.198;2023-05-20T09:31:54;10.40;;;9.30;;
58669;SDS011;44439;47.924;10.198;2023-05-20T09:34:41;12.18;;;9.98;;
58669;SDS011;44439;47.924;10.198;2023-05-20T09:37:27;10.20;;;9.18;;
58669;SDS011;44439;47.924;10.198;2023-05-20T09:40:13;11.00;;;9.80;;
58669;SDS011;44439;47.924;10.198;2023-05-20T09:43:03;12.00;;;9.73;;
58669;SDS011;44439;47.924;10.198;2023-05-20T09:45:48;11.43;;;10.23;;
58669;SDS011;44439;47.924;10.198;2023-05-20T09:48:34;11.30;;;10.10;;
58669;SDS011;44439;47.924;10.198;2023-05-20T09:51:21;11.98;;;9.82;;
58669;SDS011;44439;47.924;10.198;2023-05-20T09:54:08;10.98;;;9.80;;
58669;SDS011;44439;47.924;10.198;2023-05-20T09:56:56;11.90;;;10.60;;
58669;SDS011;44439;47.924;10.198;2023-05-20T09:59:41;11.48;;;10.18;;
58669;SDS011;44439;47.924;10.198;2023-05-20T10:02:28;12.38;;;9.73;;
58669;SDS011;44439;47.924;10.198;2023-05-20T10:05:18;11.27;;;9.85;;
58669;SDS011;44439;47.924;10.198;2023-05-20T10:19:34;14.88;;;10.63;;
58669;SDS011;44439;47.924;10.198;2023-05-20T10:22:26;12.77;;;10.55;;
58669;SDS011;44439;47.924;10.198;2023-05-20T10:25:22;13.20;;;10.80;;
58669;SDS011;44439;47.924;10.198;2023-05-20T10:28:10;12.02;;;9.82;;
58669;SDS011;44439;47.924;10.198;2023-05-20T10:30:56;13.65;;;10.40;;
58669;SDS011;44439;47.924;10.198;2023-05-20T10:33:42;11.77;;;10.07;;
58669;SDS011;44439;47.924;10.198;2023-05-20T10:36:28;13.10;;;10.05;;
58669;SDS011;44439;47.924;10.198;2023-05-20T10:39:15;11.52;;;9.82;;
58669;SDS011;44439;47.924;10.198;2023-05-20T10:42:05;12.65;;;10.52;;
58669;SDS011;44439;47.924;10.198;2023-05-20T10:44:51;14.18;;;10.98;;
58669;SDS011;44439;47.924;10.198;2023-05-20T10:47:41;11.25;;;9.35;;
58669;SDS011;44439;47.924;10.198;2023-05-20T10:50:36;10.85;;;9.48;;
58669;SDS011;44439;47.924;10.198;2023-05-20T10:53:23;12.52;;;10.10;;
58669;SDS011;44439;47.924;10.198;2023-05-20T10:56:15;14.23;;;10.68;;
58669;SDS011;44439;47.924;10.198;2023-05-20T10:59:01;13.10;;;11.07;;
58669;SDS011;44439;47.924;10.198;2023-05-20T11:01:47;12.07;;;10.80;;
58669;SDS011;44439;47.924;10.198;2023-05-20T11:04:32;11.88;;;10.15;;
58669;SDS011;44439;47.924;10.198;2023-05-20T11:07:28;14.57;;;10.90;;
58669;SDS011;44439;47.924;10.198;2023-05-20T11:10:14;12.15;;;10.27;;
58669;SDS011;44439;47.924;10.198;2023-05-20T11:13:00;16.02;;;11.65;;
58669;SDS011;44439;47.924;10.198;2023-05-20T11:15:47;14.52;;;10.35;;
58669;SDS011;44439;47.924;10.198;2023-05-20T11:18:33;12.93;;;10.70;;
58669;SDS011;44439;47.924;10.198;2023-05-20T11:21:18;13.38;;;10.52;;
58669;SDS011;44439;47.924;10.198;2023-05-20T11:24:04;13.32;;;10.43;;
58669;SDS011;44439;47.924;10.198;2023-05-20T11:26:50;11.07;;;9.25;;
58669;SDS011;44439;47.924;10.198;2023-05-20T11:29:36;12.63;;;10.30;;
58669;SDS011;44439;47.924;10.198;2023-05-20T11:32:23;11.13;;;10.02;;
58669;SDS011;44439;47.924;10.198;2023-05-20T11:35:23;13.82;;;11.07;;
58669;SDS011;44439;47.924;10.198;2023-05-20T11:38:09;11.77;;;10.57;;
58669;SDS011;44439;47.924;10.198;2023-05-20T11:40:55;11.88;;;10.13;;
58669;SDS011;44439;47.924;10.198;2023-05-20T11:43:42;12.50;;;11.15;;
58669;SDS011;44439;47.924;10.198;2023-05-20T11:46:27;13.27;;;10.60;;
58669;SDS011;44439;47.924;10.198;2023-05-20T11:49:13;13.63;;;10.65;;
58669;SDS011;44439;47.924;10.198;2023-05-20T11:51:59;13.70;;;11.15;;
58669;SDS011;44439;47.924;10.198;2023-05-20T11:54:51;13.05;;;11.05;;
58669;SDS011;44439;47.924;10.198;2023-05-20T11:57:37;13.80;;;11.23;;
58669;SDS011;44439;47.924;10.198;2023-05-20T12:00:22;13.25;;;10.80;;
58669;SDS011;44439;47.924;10.198;2023-05-20T12:03:08;12.93;;;11.35;;
58669;SDS011;44439;47.924;10.198;2023-05-20T12:05:53;12.50;;;10.93;;
58669;SDS011;44439;47.924;10.198;2023-05-20T12:08:39;13.10;;;11.13;;
58669;SDS011;44439;47.924;10.198;2023-05-20T12:11:25;13.90;;;10.88;;
58669;SDS011;44439;47.924;10.198;2023-05-20T12:14:10;11.88;;;10.38;;
58669;SDS011;44439;47.924;10.198;2023-05-20T12:16:56;12.90;;;10.77;;
58669;SDS011;44439;47.924;10.198;2023-05-20T12:19:41;12.70;;;11.35;;
58669;SDS011;44439;47.924;10.198;2023-05-20T12:22:27;11.63;;;10.43;;
58669;SDS011;44439;47.924;10.198;2023-05-20T12:25:13;14.30;;;11.63;;
58669;SDS011;44439;47.924;10.198;2023-05-20T12:28:01;14.63;;;11.68;;
58669;SDS011;44439;47.924;10.198;2023-05-20T12:30:47;14.55;;;11.32;;
58669;SDS011;44439;47.924;10.198;2023-05-20T12:33:32;12.85;;;11.50;;
58669;SDS011;44439;47.924;10.198;2023-05-20T12:36:19;14.80;;;11.35;;
58669;SDS011;44439;47.924;10.198;2023-05-20T12:39:05;13.23;;;11.30;;
58669;SDS011;44439;47.924;10.198;2023-05-20T12:41:51;18.08;;;11.13;;
58669;SDS011;44439;47.924;10.198;2023-05-20T12:44:38;14.65;;;12.18;;
58669;SDS011;44439;47.924;10.198;2023-05-20T12:47:24;12.68;;;11.35;;
58669;SDS011;44439;47.924;10.198;2023-05-20T12:50:09;12.63;;;10.43;;
58669;SDS011;44439;47.924;10.198;2023-05-20T12:52:55;15.55;;;11.15;;
58669;SDS011;44439;47.924;10.198;2023-05-20T12:55:40;12.88;;;10.50;;
58669;SDS011;44439;47.924;10.198;2023-05-20T12:58:26;12.85;;;11.15;;
58669;SDS011;44439;47.924;10.198;2023-05-20T13:01:11;13.05;;;11.23;;
58669;SDS011;44439;47.924;10.198;2023-05-20T13:03:57;15.18;;;11.98;;
58669;SDS011;44439;47.924;10.198;2023-05-20T13:06:43;14.02;;;11.85;;
58669;SDS011;44439;47.924;10.198;2023-05-20T13:09:28;11.57;;;10.38;;
58669;SDS011;44439;47.924;10.198;2023-05-20T13:12:14;11.68;;;10.07;;
58669;SDS011;44439;47.924;10.198;2023-05-20T13:14:59;11.63;;;9.68;;
58669;SDS011;44439;47.924;10.198;2023-05-20T13:17:45;12.32;;;10.32;;
58669;SDS011;44439;47.924;10.198;2023-05-20T13:20:31;11.43;;;10.18;;
58669;SDS011;44439;47.924;10.198;2023-05-20T13:23:16;11.32;;;10.07;;
58669;SDS011;44439;47.924;10.198;2023-05-20T13:26:02;9.35;;;8.00;;
58669;SDS011;44439;47.924;10.198;2023-05-20T13:28:48;10.20;;;8.52;;
58669;SDS011;44439;47.924;10.198;2023-05-20T13:31:34;10.00;;;8.00;;
58669;SDS011;44439;47.924;10.198;2023-05-20T13:34:19;10.13;;;8.52;;
58669;SDS011;44439;47.924;10.198;2023-05-20T13:37:05;10.90;;;8.23;;
58669;SDS011;44439;47.924;10.198;2023-05-20T13:39:51;9.00;;;8.10;;
58669;SDS011;44439;47.924;10.198;2023-05-20T13:42:36;9.43;;;8.50;;
58669;SDS011;44439;47.924;10.198;2023-05-20T13:45:22;10.43;;;8.88;;
58669;SDS011;44439;47.924;10.198;2023-05-20T13:48:07;9.45;;;8.38;;
58669;SDS011;44439;47.924;10.198;2023-05-20T13:50:53;9.20;;;8.30;;
58669;SDS011;44439;47.924;10.198;2023-05-20T13:53:38;8.57;;;7.78;;
58669;SDS011;44439;47.924;10.198;2023-05-20T13:56:24;10.00;;;7.63;;
58669;SDS011;44439;47.924;10.198;2023-05-20T13:59:10;8.93;;;8.02;;
58669;SDS011;44439;47.924;10.198;2023-05-20T14:01:56;9.45;;;8.45;;
58669;SDS011;44439;47.924;10.198;2023-05-20T14:04:41;8.70;;;7.90;;
58669;SDS011;44439;47.924;10.198;2023-05-20T14:07:29;8.80;;;7.80;;
58669;SDS011;44439;47.924;10.198;2023-05-20T14:10:14;9.00;;;7.10;;
58669;SDS011;44439;47.924;10.198;2023-05-20T14:13:00;7.95;;;7.15;;
58669;SDS011;44439;47.924;10.198;2023-05-20T14:15:46;8.50;;;7.57;;
58669;SDS011;44439;47.924;10.198;2023-05-20T14:18:34;7.57;;;6.78;;
58669;SDS011;44439;47.924;10.198;2023-05-20T14:21:20;7.32;;;6.28;;
58669;SDS011;44439;47.924;10.198;2023-05-20T14:24:06;8.68;;;6.75;;
58669;SDS011;44439;47.924;10.198;2023-05-20T14:26:51;7.57;;;6.75;;
58669;SDS011;44439;47.924;10.198;2023-05-20T14:29:37;7.55;;;6.75;;
58669;SDS011;44439;47.924;10.198;2023-05-20T14:32:22;6.78;;;6.07;;
58669;SDS011;44439;47.924;10.198;2023-05-20T14:35:08;7.68;;;5.63;;
58669;SDS011;44439;47.924;10.198;2023-05-20T14:37:54;6.95;;;6.25;;
58669;SDS011;44439;47.924;10.198;2023-05-20T14:40:39;6.40;;;5.80;;
58669;SDS011;44439;47.924;10.198;2023-05-20T14:43:25;5.60;;;5.00;;
58669;SDS011;44439;47.924;10.198;2023-05-20T14:46:11;5.95;;;4.80;;
58669;SDS011;44439;47.924;10.198;2023-05-20T14:48:57;6.25;;;5.03;;
58669;SDS011;44439;47.924;10.198;2023-05-20T14:51:42;9.73;;;5.25;;
58669;SDS011;44439;47.924;10.198;2023-05-20T14:54:28;5.68;;;5.00;;
58669;SDS011;44439;47.924;10.198;2023-05-20T14:57:13;5.63;;;4.82;;
58669;SDS011;44439;47.924;10.198;2023-05-20T15:00:00;5.15;;;4.03;;
58669;SDS011;44439;47.924;10.198;2023-05-20T15:02:45;5.25;;;4.50;;
58669;SDS011;44439;47.924;10.198;2023-05-20T15:05:31;9.43;;;4.95;;
58669;SDS011;44439;47.924;10.198;2023-05-20T15:08:16;4.60;;;4.20;;
58669;SDS011;44439;47.924;10.198;2023-05-20T15:11:02;6.05;;;4.72;;
58669;SDS011;44439;47.924;10.198;2023-05-20T15:13:48;5.85;;;4.50;;
58669;SDS011;44439;47.924;10.198;2023-05-20T15:16:35;4.25;;;3.85;;
58669;SDS011;44439;47.924;10.198;2023-05-20T15:19:21;5.28;;;4.35;;
58669;SDS011;44439;47.924;10.198;2023-05-20T15:22:07;5.30;;;4.22;;
58669;SDS011;44439;47.924;10.198;2023-05-20T15:24:52;5.70;;;4.57;;
58669;SDS011;44439;47.924;10.198;2023-05-20T15:27:39;4.63;;;3.72;;
58669;SDS011;44439;47.924;10.198;2023-05-20T15:30:26;3.88;;;3.55;;
58669;SDS011;44439;47.924;10.198;2023-05-20T15:33:11;4.03;;;3.63;;
58669;SDS011;44439;47.924;10.198;2023-05-20T15:35:57;3.75;;;3.42;;
58669;SDS011;44439;47.924;10.198;2023-05-20T15:38:43;4.57;;;3.40;;
58669;SDS011;44439;47.924;10.198;2023-05-20T15:41:30;4.38;;;3.30;;
58669;SDS011;44439;47.924;10.198;2023-05-20T15:44:16;4.00;;;3.10;;
58669;SDS011;44439;47.924;10.198;2023-05-20T15:47:01;6.57;;;3.08;;
58669;SDS011;44439;47.924;10.198;2023-05-20T15:49:50;6.45;;;3.30;;
58669;SDS011;44439;47.924;10.198;2023-05-20T15:52:36;4.35;;;3.80;;
58669;SDS011;44439;47.924;10.198;2023-05-20T15:55:21;4.88;;;3.83;;
58669;SDS011;44439;47.924;10.198;2023-05-20T15:58:09;3.88;;;3.47;;
58669;SDS011;44439;47.924;10.198;2023-05-20T16:00:55;2.90;;;2.70;;
58669;SDS011;44439;47.924;10.198;2023-05-20T16:03:41;4.10;;;3.50;;
58669;SDS011;44439;47.924;10.198;2023-05-20T16:06:27;6.85;;;4.00;;
58669;SDS011;44439;47.924;10.198;2023-05-20T16:09:12;6.68;;;3.95;;
58669;SDS011;44439;47.924;10.198;2023-05-20T16:11:58;6.20;;;4.25;;
58669;SDS011;44439;47.924;10.198;2023-05-20T16:14:43;4.68;;;4.05;;
58669;SDS011;44439;47.924;10.198;2023-05-20T16:17:29;5.88;;;4.90;;
58669;SDS011;44439;47.924;10.198;2023-05-20T16:20:14;6.15;;;4.88;;